Главная страница
METAR-TAF:

METAR-TAF

Аэропорты :

Chautauqua County/Dunkirk Airport

Dunkirk, Нью-Йорк, США

широта: 42-29-35N, долгота: 079-16-33W, высота над уровнем моря: 211 м

Текущие метеонаблюдения

Эта сводка был подготовлена 45 минут назад, в 21:53 UTC
Ветер 4 Узел от южный-юго-западный
Температура 2°C
Влажность 93%
Давление 1021 hPa
Видимость: 16.1 км
Сплошная облачность на высоте 1600 фута

METAR: KDKK 182153Z AUTO 21004KT 10SM OVC016 02/01 A3015 RMK AO2 RAE37UPB2056E2059 SLP216 P0000 T00220006

Время: 17:38 (22:38 UTC)


TAF: отсутствует

Метеонаблюдения и прогнозы для более 4000 аэропортов (сводки METAR и TAF).

Имеющиеся станции представлены на карте желтыми и красными точками.

Чтобы увидеть название станции, наведите на нее мышь.

Затем щелкните, чтобы увидеть метеонаблюдения и метеопрогнозы.

Управление картой: чтобы увеличить масштаб, щелкните зеленые кнопки с черным крестиком; чтобы уменьшить масштаб, щелкните зеленую кнопку с тире; для просмотра соседних карт щелкайте зеленые стрелки.


METAR-TAF: